createdAt,value
2022-08-21T00:01:45.144Z,20.57
2022-08-21T00:04:16.154Z,20.75
2022-08-21T00:06:51.109Z,20.80
2022-08-21T00:09:19.358Z,20.77
2022-08-21T00:11:46.949Z,20.64
2022-08-21T00:14:14.933Z,20.76
2022-08-21T00:16:42.325Z,20.75
2022-08-21T00:19:09.943Z,20.69
2022-08-21T00:21:37.472Z,20.75
2022-08-21T00:24:05.624Z,20.85
2022-08-21T00:26:33.592Z,20.90
2022-08-21T00:29:00.924Z,20.95
2022-08-21T00:31:29.168Z,20.97
2022-08-21T00:34:00.952Z,21.13
2022-08-21T00:36:29.115Z,21.06
2022-08-21T00:38:57.528Z,21.14
2022-08-21T00:41:37.196Z,21.12
2022-08-21T00:44:09.092Z,21.15
2022-08-21T00:46:37.701Z,21.22
2022-08-21T00:49:06.310Z,21.18
2022-08-21T00:51:42.402Z,21.17
2022-08-21T00:54:15.027Z,21.18
2022-08-21T00:56:50.114Z,21.13
2022-08-21T00:59:20.513Z,20.99
2022-08-21T01:01:48.294Z,21.15
2022-08-21T01:04:17.098Z,20.97
2022-08-21T01:06:44.536Z,20.92
2022-08-21T01:09:13.137Z,21.07
2022-08-21T01:11:42.249Z,21.00
2022-08-21T01:14:13.131Z,20.95
2022-08-21T01:16:45.218Z,20.78
2022-08-21T01:19:13.115Z,20.85
2022-08-21T01:21:40.513Z,21.02
2022-08-21T01:24:08.012Z,21.04
2022-08-21T01:26:36.284Z,21.12
2022-08-21T01:29:18.314Z,21.06
2022-08-21T01:31:45.664Z,20.85
2022-08-21T01:34:13.151Z,20.68
2022-08-21T01:36:41.406Z,20.39
2022-08-21T01:39:08.698Z,20.15
2022-08-21T01:41:35.954Z,20.40
2022-08-21T01:44:03.676Z,20.29
2022-08-21T01:46:30.930Z,20.31
2022-08-21T01:48:58.574Z,20.31
2022-08-21T01:51:26.322Z,20.20
2022-08-21T01:53:53.672Z,19.97
2022-08-21T01:56:21.063Z,19.80
2022-08-21T01:58:48.975Z,19.66
2022-08-21T02:01:16.569Z,19.91
2022-08-21T02:03:43.910Z,19.74
2022-08-21T02:06:15.774Z,20.00
2022-08-21T02:08:43.084Z,19.85
2022-08-21T02:11:10.357Z,19.88
2022-08-21T02:13:37.999Z,20.03
2022-08-21T02:16:05.760Z,19.97
2022-08-21T02:18:33.136Z,20.12
2022-08-21T02:21:00.364Z,19.98
2022-08-21T02:23:27.800Z,19.93
2022-08-21T02:25:59.913Z,19.85
2022-08-21T02:28:27.638Z,19.79
2022-08-21T02:30:56.784Z,19.61
2022-08-21T02:33:24.864Z,19.85
2022-08-21T02:35:52.905Z,19.98
2022-08-21T02:38:24.282Z,19.72
2022-08-21T02:40:52.719Z,19.62
2022-08-21T02:43:21.566Z,19.72
2022-08-21T02:45:50.258Z,19.90
2022-08-21T02:48:20.409Z,19.87
2022-08-21T02:50:48.720Z,19.88
2022-08-21T02:53:17.640Z,19.89
2022-08-21T02:55:47.498Z,19.90
2022-08-21T02:58:17.291Z,20.03
2022-08-21T03:00:45.080Z,20.05
2022-08-21T03:03:13.431Z,20.04
2022-08-21T03:05:40.778Z,20.06
2022-08-21T03:08:12.416Z,19.98
2022-08-21T03:10:42.895Z,19.80
2022-08-21T03:13:10.820Z,19.75
2022-08-21T03:15:38.472Z,19.86
2022-08-21T03:18:06.496Z,20.00
2022-08-21T03:20:34.659Z,20.04
2022-08-21T03:23:04.259Z,19.95
2022-08-21T03:25:41.106Z,19.80
2022-08-21T03:28:15.546Z,19.93
2022-08-21T03:30:51.594Z,20.06
2022-08-21T03:33:20.574Z,20.05
2022-08-21T03:35:54.075Z,19.97
2022-08-21T03:38:25.916Z,20.03
2022-08-21T03:40:54.300Z,19.99
2022-08-21T03:43:21.975Z,19.99
2022-08-21T03:45:49.297Z,19.96
2022-08-21T03:48:16.672Z,19.86
2022-08-21T03:50:44.872Z,19.83
2022-08-21T03:53:16.716Z,19.80
2022-08-21T03:55:47.395Z,19.91
2022-08-21T03:58:17.572Z,19.88
2022-08-21T04:00:47.385Z,19.84
2022-08-21T04:03:14.766Z,19.63
2022-08-21T04:05:42.566Z,19.54
2022-08-21T04:08:10.064Z,19.31
2022-08-21T04:10:38.820Z,19.43
2022-08-21T04:13:07.311Z,19.68
2022-08-21T04:15:35.443Z,19.61
2022-08-21T04:18:03.041Z,19.29
2022-08-21T04:20:30.550Z,19.28
2022-08-21T04:22:57.941Z,19.24
2022-08-21T04:25:28.794Z,19.15
2022-08-21T04:27:56.097Z,19.11
2022-08-21T04:30:28.208Z,19.24
2022-08-21T04:32:58.051Z,19.40
2022-08-21T04:35:27.910Z,19.37
2022-08-21T04:37:55.363Z,19.39
2022-08-21T04:40:25.133Z,19.43
2022-08-21T04:43:04.013Z,19.53
2022-08-21T04:45:36.511Z,19.45
2022-08-21T04:48:08.619Z,19.36
2022-08-21T04:50:48.825Z,19.13
2022-08-21T04:53:23.450Z,19.26
2022-08-21T04:55:53.086Z,19.41
2022-08-21T04:58:21.954Z,19.41
2022-08-21T05:00:53.522Z,19.48
2022-08-21T05:03:23.847Z,19.34
2022-08-21T05:05:51.218Z,19.28
2022-08-21T05:08:20.925Z,19.32
2022-08-21T05:10:48.491Z,19.21
2022-08-21T05:13:16.268Z,19.10
2022-08-21T05:15:43.522Z,18.98
2022-08-21T05:18:10.789Z,18.98
2022-08-21T05:20:38.184Z,18.85
2022-08-21T05:23:14.576Z,18.86
2022-08-21T05:25:42.745Z,18.89
2022-08-21T05:28:11.419Z,18.97
2022-08-21T05:30:47.300Z,18.78
2022-08-21T05:33:21.627Z,18.69
2022-08-21T05:35:53.521Z,18.99
2022-08-21T05:38:21.036Z,19.11
2022-08-21T05:40:48.715Z,19.18
2022-08-21T05:43:16.578Z,19.20
2022-08-21T05:45:46.786Z,19.00
2022-08-21T05:48:20.331Z,19.04
2022-08-21T05:50:49.432Z,19.11
2022-08-21T05:53:18.377Z,19.22
2022-08-21T05:55:47.168Z,19.07
2022-08-21T05:58:17.313Z,19.24
2022-08-21T06:00:45.599Z,19.11
2022-08-21T06:03:16.515Z,19.12
2022-08-21T06:05:44.169Z,19.09
2022-08-21T06:08:11.525Z,18.93
2022-08-21T06:10:39.225Z,19.05
2022-08-21T06:13:06.492Z,18.92
2022-08-21T06:15:34.111Z,19.18
2022-08-21T06:18:01.395Z,19.53
2022-08-21T06:20:29.357Z,19.89
2022-08-21T06:22:56.685Z,19.76
2022-08-21T06:25:24.144Z,19.94
2022-08-21T06:27:51.968Z,19.97
2022-08-21T06:30:19.538Z,20.04
2022-08-21T06:32:57.547Z,20.09
2022-08-21T06:35:31.083Z,20.34
2022-08-21T06:38:04.571Z,20.24
2022-08-21T06:40:34.951Z,20.47
2022-08-21T06:43:11.785Z,20.49
2022-08-21T06:45:43.254Z,20.35
2022-08-21T06:48:11.416Z,20.38
2022-08-21T06:50:41.332Z,20.43
2022-08-21T06:53:11.641Z,20.68
2022-08-21T06:55:39.804Z,20.73
2022-08-21T06:58:07.408Z,21.03
2022-08-21T07:00:36.256Z,20.50
2022-08-21T07:03:03.502Z,20.52
2022-08-21T07:05:32.443Z,20.65
2022-08-21T07:08:00.237Z,20.75
2022-08-21T07:10:27.913Z,20.99
2022-08-21T07:13:01.174Z,21.04
2022-08-21T07:15:30.851Z,21.11
2022-08-21T07:18:02.920Z,21.31
2022-08-21T07:20:31.160Z,21.21
2022-08-21T07:23:01.017Z,20.87
2022-08-21T07:25:33.950Z,20.89
2022-08-21T07:28:01.311Z,20.84
2022-08-21T07:30:28.691Z,20.93
2022-08-21T07:32:56.842Z,21.30
2022-08-21T07:35:26.062Z,21.35
2022-08-21T07:37:53.314Z,21.44
2022-08-21T07:40:20.903Z,21.50
2022-08-21T07:42:52.418Z,21.54
2022-08-21T07:45:21.566Z,21.64
2022-08-21T07:47:51.900Z,21.85
2022-08-21T07:50:21.499Z,21.95
2022-08-21T07:52:48.793Z,22.02
2022-08-21T07:55:18.193Z,22.25
2022-08-21T07:57:45.673Z,22.50
2022-08-21T08:00:17.392Z,22.54
2022-08-21T08:02:47.685Z,22.51
2022-08-21T08:05:14.806Z,22.52
2022-08-21T08:07:41.995Z,22.73
2022-08-21T08:10:10.426Z,22.93
2022-08-21T08:12:39.656Z,22.90
2022-08-21T08:15:12.051Z,23.24
2022-08-21T08:17:39.849Z,23.17
2022-08-21T08:20:08.677Z,23.32
2022-08-21T08:22:37.011Z,23.23
2022-08-21T08:25:09.332Z,23.21
2022-08-21T08:27:38.005Z,23.41
2022-08-21T08:30:06.885Z,23.56
2022-08-21T08:32:36.016Z,23.29
2022-08-21T08:35:04.275Z,23.38
2022-08-21T08:37:34.311Z,23.43
2022-08-21T08:40:04.636Z,23.68
2022-08-21T08:42:35.101Z,23.76
2022-08-21T08:45:05.576Z,23.84
2022-08-21T08:47:36.421Z,23.88
2022-08-21T08:50:08.900Z,23.75
2022-08-21T08:53:15.069Z,23.90
2022-08-21T08:55:44.895Z,23.79
2022-08-21T08:58:26.264Z,23.68
2022-08-21T09:00:55.329Z,23.88
2022-08-21T09:03:24.579Z,24.02
2022-08-21T09:05:57.276Z,24.17
2022-08-21T09:08:50.635Z,23.80
2022-08-21T09:11:28.446Z,23.71
2022-08-21T09:14:22.469Z,23.96
2022-08-21T09:17:03.972Z,23.93
2022-08-21T09:19:45.774Z,24.02
2022-08-21T09:22:32.223Z,24.32
2022-08-21T09:25:24.021Z,24.46
2022-08-21T09:27:51.744Z,24.41
2022-08-21T09:30:20.841Z,24.40
2022-08-21T09:32:48.145Z,24.20
2022-08-21T09:35:18.256Z,24.23
2022-08-21T09:38:00.137Z,24.34
2022-08-21T09:40:36.537Z,24.41
2022-08-21T09:43:07.954Z,24.45
2022-08-21T09:45:36.213Z,24.53
2022-08-21T09:48:27.009Z,24.50
2022-08-21T09:51:13.339Z,24.80
2022-08-21T09:54:04.518Z,24.85
2022-08-21T09:56:53.548Z,24.93
2022-08-21T09:59:27.848Z,24.85
2022-08-21T10:01:55.531Z,25.02
2022-08-21T10:04:34.843Z,25.20
2022-08-21T10:07:14.013Z,24.80
2022-08-21T10:09:42.254Z,24.22
2022-08-21T10:12:24.226Z,24.31
2022-08-21T10:15:08.265Z,24.58
2022-08-21T10:17:52.882Z,24.56
2022-08-21T10:20:25.244Z,24.87
2022-08-21T10:23:22.072Z,25.08
2022-08-21T10:26:13.508Z,25.41
2022-08-21T10:29:12.497Z,25.02
2022-08-21T10:32:02.792Z,24.88
2022-08-21T10:34:43.634Z,24.49
2022-08-21T10:37:23.083Z,24.45
2022-08-21T10:40:04.993Z,24.58
2022-08-21T10:42:58.933Z,24.43
2022-08-21T10:45:52.890Z,25.12
2022-08-21T10:48:36.946Z,25.28
2022-08-21T10:51:09.190Z,25.37
2022-08-21T10:54:00.607Z,25.47
2022-08-21T10:56:30.967Z,25.30
2022-08-21T10:59:16.858Z,25.48
2022-08-21T11:02:05.145Z,25.27
2022-08-21T11:04:50.158Z,25.63
2022-08-21T11:07:38.016Z,25.16
2022-08-21T11:10:24.546Z,25.14
2022-08-21T11:13:00.093Z,25.10
2022-08-21T11:15:49.186Z,25.46
2022-08-21T11:18:16.887Z,25.58
2022-08-21T11:20:52.840Z,25.79
2022-08-21T11:23:25.854Z,25.82
2022-08-21T11:26:04.097Z,25.86
2022-08-21T11:28:39.919Z,25.47
2022-08-21T11:31:13.487Z,25.55
2022-08-21T11:33:47.677Z,25.77
2022-08-21T11:36:43.019Z,26.04
2022-08-21T11:39:57.320Z,26.24
2022-08-21T11:42:37.324Z,26.18
2022-08-21T11:45:33.864Z,26.66
2022-08-21T11:48:22.367Z,26.72
2022-08-21T11:50:50.791Z,26.60
2022-08-21T11:53:28.049Z,26.56
2022-08-21T11:55:58.388Z,26.63
2022-08-21T11:58:31.004Z,26.73
2022-08-21T12:01:29.507Z,26.87
2022-08-21T12:03:58.090Z,27.01
2022-08-21T12:06:33.489Z,26.86
2022-08-21T12:09:05.871Z,26.54
2022-08-21T12:11:33.516Z,27.13
2022-08-21T12:14:13.394Z,27.37
2022-08-21T12:16:43.430Z,27.36
2022-08-21T12:19:30.275Z,27.57
2022-08-21T12:21:57.939Z,27.68
2022-08-21T12:24:28.171Z,27.61
2022-08-21T12:26:58.163Z,27.94
2022-08-21T12:29:32.686Z,27.81
2022-08-21T12:32:06.290Z,27.69
2022-08-21T12:34:55.065Z,27.54
2022-08-21T12:37:22.323Z,27.90
2022-08-21T12:39:52.933Z,27.84
2022-08-21T12:42:24.234Z,28.10
2022-08-21T12:44:57.200Z,27.95
2022-08-21T12:48:05.815Z,27.77
2022-08-21T12:50:36.545Z,27.80
2022-08-21T12:53:18.633Z,27.90
2022-08-21T12:55:48.351Z,27.92
2022-08-21T12:58:23.695Z,27.69
2022-08-21T13:00:54.258Z,27.70
2022-08-21T13:03:22.956Z,27.56
2022-08-21T13:05:52.852Z,27.70
2022-08-21T13:08:23.088Z,27.51
2022-08-21T13:10:58.835Z,27.77
2022-08-21T13:13:28.811Z,27.81
2022-08-21T13:16:07.725Z,27.90
2022-08-21T13:18:52.600Z,27.92
2022-08-21T13:21:22.089Z,27.92
2022-08-21T13:23:49.394Z,27.90
2022-08-21T13:26:21.877Z,28.11
2022-08-21T13:28:50.504Z,27.88
2022-08-21T13:31:22.097Z,27.92
2022-08-21T13:33:50.410Z,28.20
2022-08-21T13:36:30.957Z,28.36
2022-08-21T13:38:58.257Z,28.38
2022-08-21T13:41:29.257Z,28.41
2022-08-21T13:44:02.690Z,28.47
2022-08-21T13:46:36.001Z,28.49
2022-08-21T13:49:05.000Z,28.64
2022-08-21T13:51:33.125Z,28.76
2022-08-21T13:54:00.705Z,28.87
2022-08-21T13:56:30.949Z,28.80
2022-08-21T13:58:59.741Z,28.82
2022-08-21T14:01:34.342Z,28.62
2022-08-21T14:04:08.788Z,28.30
2022-08-21T14:06:38.199Z,28.32
2022-08-21T14:09:11.646Z,28.45
2022-08-21T14:11:40.519Z,28.40
2022-08-21T14:14:25.586Z,28.44
2022-08-21T14:16:59.845Z,28.50
2022-08-21T14:19:29.637Z,28.46
2022-08-21T14:21:56.945Z,28.73
2022-08-21T14:24:24.426Z,28.73
2022-08-21T14:27:04.199Z,28.25
2022-08-21T14:29:37.428Z,28.28
2022-08-21T14:32:25.033Z,28.07
2022-08-21T14:34:54.592Z,28.08
2022-08-21T14:37:23.216Z,27.87
2022-08-21T14:39:51.245Z,28.26
2022-08-21T14:42:19.005Z,27.77
2022-08-21T14:44:46.553Z,27.93
2022-08-21T14:47:14.043Z,28.10
2022-08-21T14:49:41.395Z,28.23
2022-08-21T14:52:08.612Z,28.10
2022-08-21T14:54:36.026Z,28.12
2022-08-21T14:57:07.643Z,28.39
2022-08-21T14:59:35.663Z,28.44
2022-08-21T15:02:05.201Z,28.50
2022-08-21T15:04:33.712Z,28.66
2022-08-21T15:07:01.002Z,28.82
2022-08-21T15:09:28.518Z,28.55
2022-08-21T15:11:58.309Z,28.91
2022-08-21T15:14:28.375Z,28.76
2022-08-21T15:16:55.928Z,28.89
2022-08-21T15:19:23.695Z,28.66
2022-08-21T15:21:51.052Z,28.38
2022-08-21T15:24:18.313Z,28.56
2022-08-21T15:26:46.041Z,28.52
2022-08-21T15:29:13.693Z,28.75
2022-08-21T15:31:55.741Z,28.77
2022-08-21T15:34:27.332Z,28.67
2022-08-21T15:36:58.798Z,28.56
2022-08-21T15:39:31.095Z,28.26
2022-08-21T15:42:00.032Z,28.50
2022-08-21T15:44:33.525Z,28.43
2022-08-21T15:47:04.084Z,28.51
2022-08-21T15:49:31.551Z,28.58
2022-08-21T15:51:58.819Z,28.16
2022-08-21T15:54:26.059Z,28.24
2022-08-21T15:56:53.367Z,28.17
2022-08-21T15:59:23.149Z,28.23
2022-08-21T16:02:15.193Z,28.26
2022-08-21T16:04:42.565Z,28.19
2022-08-21T16:07:10.579Z,28.18
2022-08-21T16:09:38.085Z,28.37
2022-08-21T16:12:06.584Z,28.31
2022-08-21T16:14:35.327Z,28.23
2022-08-21T16:17:08.015Z,27.94
2022-08-21T16:19:35.929Z,27.85
2022-08-21T16:22:05.144Z,27.64
2022-08-21T16:24:32.909Z,27.70
2022-08-21T16:27:02.588Z,27.58
2022-08-21T16:29:35.289Z,27.71
2022-08-21T16:32:04.784Z,27.55
2022-08-21T16:34:32.155Z,27.65
2022-08-21T16:37:23.997Z,27.38
2022-08-21T16:39:52.056Z,27.48
2022-08-21T16:42:23.488Z,27.51
2022-08-21T16:44:50.903Z,27.34
2022-08-21T16:47:26.962Z,27.35
2022-08-21T16:49:55.198Z,27.36
2022-08-21T16:52:22.420Z,27.55
2022-08-21T16:54:49.819Z,27.55
2022-08-21T16:57:17.119Z,27.52
2022-08-21T16:59:44.514Z,27.45
2022-08-21T17:02:21.680Z,27.34
2022-08-21T17:04:48.973Z,27.26
2022-08-21T17:07:16.311Z,27.21
2022-08-21T17:09:43.628Z,27.25
2022-08-21T17:12:11.976Z,27.27
2022-08-21T17:14:39.282Z,27.20
2022-08-21T17:17:08.641Z,27.12
2022-08-21T17:19:36.843Z,27.12
2022-08-21T17:22:04.797Z,27.03
2022-08-21T17:24:32.128Z,27.13
2022-08-21T17:26:59.702Z,27.15
2022-08-21T17:29:35.267Z,27.16
2022-08-21T17:32:03.987Z,27.06
2022-08-21T17:34:31.869Z,27.08
2022-08-21T17:37:00.221Z,26.91
2022-08-21T17:39:27.533Z,26.78
2022-08-21T17:41:57.618Z,26.86
2022-08-21T17:44:25.957Z,26.94
2022-08-21T17:46:53.679Z,27.15
2022-08-21T17:49:21.115Z,27.12
2022-08-21T17:51:48.428Z,26.94
2022-08-21T17:54:15.667Z,26.98
2022-08-21T17:56:43.307Z,27.07
2022-08-21T17:59:10.796Z,27.03
2022-08-21T18:01:40.847Z,27.11
2022-08-21T18:04:09.477Z,26.86
2022-08-21T18:06:37.170Z,26.91
2022-08-21T18:09:05.344Z,27.08
2022-08-21T18:11:33.450Z,27.22
2022-08-21T18:14:06.747Z,27.02
2022-08-21T18:16:35.836Z,26.95
2022-08-21T18:19:05.782Z,26.69
2022-08-21T18:21:35.370Z,26.58
2022-08-21T18:24:02.798Z,26.41
2022-08-21T18:26:34.675Z,26.17
2022-08-21T18:29:04.117Z,25.94
2022-08-21T18:31:33.101Z,25.92
2022-08-21T18:34:03.682Z,25.94
2022-08-21T18:36:31.277Z,26.14
2022-08-21T18:39:19.332Z,26.25
2022-08-21T18:41:47.136Z,26.30
2022-08-21T18:44:16.065Z,26.24
2022-08-21T18:46:48.835Z,26.15
2022-08-21T18:49:16.225Z,26.20
2022-08-21T18:51:45.409Z,26.11
2022-08-21T18:54:13.238Z,26.01
2022-08-21T18:56:41.470Z,26.04
2022-08-21T18:59:10.298Z,26.09
2022-08-21T19:01:38.462Z,26.07
2022-08-21T19:06:55.146Z,25.98
2022-08-21T19:09:22.412Z,25.98
2022-08-21T19:14:37.130Z,25.89
2022-08-21T19:17:04.633Z,25.88
2022-08-21T19:19:32.281Z,25.83
2022-08-21T19:21:59.704Z,25.63
2022-08-21T19:24:26.981Z,25.64
2022-08-21T19:26:55.838Z,25.69
2022-08-21T19:29:34.937Z,25.68
2022-08-21T19:32:07.105Z,25.65
2022-08-21T19:34:36.139Z,25.68
2022-08-21T19:37:03.734Z,25.62
2022-08-21T19:39:39.533Z,25.55
2022-08-21T19:42:10.242Z,25.53
2022-08-21T19:44:37.954Z,25.48
2022-08-21T19:47:10.820Z,25.50
2022-08-21T19:49:38.377Z,25.61
2022-08-21T19:52:12.889Z,25.51
2022-08-21T19:54:42.534Z,25.53
2022-08-21T19:57:10.506Z,25.00
2022-08-21T19:59:38.854Z,24.86
2022-08-21T20:02:09.138Z,24.89
2022-08-21T20:04:37.279Z,24.72
2022-08-21T20:07:08.161Z,24.90
2022-08-21T20:09:37.223Z,23.92
2022-08-21T20:12:10.313Z,23.49
2022-08-21T20:14:44.092Z,23.23
2022-08-21T20:17:13.221Z,23.02
2022-08-21T20:19:42.671Z,23.28
2022-08-21T20:22:10.466Z,23.20
2022-08-21T20:24:38.944Z,22.96
2022-08-21T20:27:06.358Z,22.66
2022-08-21T20:29:39.002Z,22.53
2022-08-21T20:32:12.267Z,22.37
2022-08-21T20:34:40.829Z,22.30
2022-08-21T20:37:09.147Z,22.24
2022-08-21T20:39:36.978Z,22.33
2022-08-21T20:42:07.001Z,22.33
2022-08-21T20:44:34.441Z,22.42
2022-08-21T20:47:04.757Z,22.43
2022-08-21T20:49:44.852Z,22.45
2022-08-21T20:52:13.572Z,22.46
2022-08-21T20:54:45.198Z,22.62
2022-08-21T20:57:14.701Z,22.52
2022-08-21T20:59:47.277Z,22.41
2022-08-21T21:02:36.564Z,22.27
2022-08-21T21:05:19.148Z,22.37
2022-08-21T21:08:03.311Z,22.08
2022-08-21T21:10:49.693Z,22.00
2022-08-21T21:13:26.290Z,22.12
2022-08-21T21:15:56.368Z,21.89
2022-08-21T21:18:41.558Z,21.73
2022-08-21T21:21:08.962Z,21.68
2022-08-21T21:23:44.468Z,21.79
2022-08-21T21:26:31.526Z,21.86
2022-08-21T21:29:10.840Z,21.72
2022-08-21T21:31:38.411Z,21.70
2022-08-21T21:34:05.922Z,21.59
2022-08-21T21:37:05.210Z,21.60
2022-08-21T21:39:40.727Z,21.84
2022-08-21T21:42:41.882Z,21.67
2022-08-21T21:45:25.851Z,21.84
2022-08-21T21:48:23.816Z,21.83
2022-08-21T21:51:02.649Z,21.66
2022-08-21T21:53:57.148Z,20.99
2022-08-21T21:56:33.454Z,21.09
2022-08-21T21:59:01.694Z,20.96
2022-08-21T22:01:47.296Z,20.84
2022-08-21T22:04:34.585Z,20.81
2022-08-21T22:07:14.791Z,20.79
2022-08-21T22:10:32.907Z,20.85
2022-08-21T22:13:13.111Z,20.67
2022-08-21T22:15:53.525Z,20.75
2022-08-21T22:18:25.658Z,20.91
2022-08-21T22:21:23.974Z,20.79
2022-08-21T22:23:56.244Z,21.03
2022-08-21T22:26:32.406Z,20.92
2022-08-21T22:29:05.317Z,20.65
2022-08-21T22:31:35.825Z,20.59
2022-08-21T22:37:06.510Z,20.42
2022-08-21T22:39:40.664Z,20.58
2022-08-21T22:42:18.357Z,20.43
2022-08-21T22:45:01.017Z,20.56
2022-08-21T22:47:36.679Z,20.59
2022-08-21T22:50:21.351Z,20.43
2022-08-21T22:52:51.583Z,20.36
2022-08-21T22:55:25.274Z,20.57
2022-08-21T22:58:11.139Z,20.74
2022-08-21T23:01:06.562Z,20.73
2022-08-21T23:03:43.589Z,20.44
2022-08-21T23:06:38.453Z,20.84
2022-08-21T23:09:19.649Z,20.92
2022-08-21T23:11:51.540Z,20.82
2022-08-21T23:14:18.958Z,20.70
2022-08-21T23:16:54.210Z,20.81
2022-08-21T23:20:24.457Z,20.44
2022-08-21T23:23:14.274Z,20.33
2022-08-21T23:32:11.555Z,19.94
2022-08-21T23:35:15.149Z,20.21
2022-08-21T23:38:17.160Z,20.66
2022-08-21T23:41:34.136Z,20.53
2022-08-21T23:44:04.866Z,20.23
2022-08-21T23:46:45.491Z,20.32
2022-08-21T23:49:29.503Z,20.40
2022-08-21T23:52:04.252Z,20.46
2022-08-21T23:55:01.722Z,20.62
2022-08-21T23:57:53.631Z,20.95
